createdAt,value
2022-08-23T00:00:06.621Z,99.90
2022-08-23T00:03:35.929Z,99.90
2022-08-23T00:06:19.097Z,99.90
2022-08-23T00:08:54.137Z,99.90
2022-08-23T00:11:32.296Z,99.90
2022-08-23T00:14:11.330Z,99.90
2022-08-23T00:16:41.334Z,99.90
2022-08-23T00:19:13.131Z,99.90
2022-08-23T00:21:57.112Z,99.90
2022-08-23T00:24:28.045Z,99.90
2022-08-23T00:27:06.639Z,99.90
2022-08-23T00:29:44.211Z,99.90
2022-08-23T00:32:15.850Z,99.90
2022-08-23T00:34:44.146Z,99.90
2022-08-23T00:37:15.070Z,99.90
2022-08-23T00:40:03.293Z,99.90
2022-08-23T00:43:15.985Z,99.90
2022-08-23T00:46:23.923Z,99.90
2022-08-23T00:48:58.081Z,99.90
2022-08-23T00:51:52.091Z,99.90
2022-08-23T00:54:25.412Z,99.90
2022-08-23T00:57:05.729Z,99.90
2022-08-23T00:59:50.259Z,99.90
2022-08-23T01:02:25.088Z,99.90
2022-08-23T01:04:58.336Z,99.90
2022-08-23T01:07:51.154Z,99.90
2022-08-23T01:10:34.368Z,99.90
2022-08-23T01:13:15.451Z,99.90
2022-08-23T01:15:57.052Z,99.90
2022-08-23T01:18:28.082Z,99.90
2022-08-23T01:21:05.904Z,99.90
2022-08-23T01:23:51.582Z,99.90
2022-08-23T01:26:28.377Z,99.90
2022-08-23T01:29:05.923Z,99.90
2022-08-23T01:31:39.276Z,99.90
2022-08-23T01:34:09.960Z,99.90
2022-08-23T01:36:40.864Z,99.90
2022-08-23T01:39:21.577Z,99.90
2022-08-23T01:41:50.262Z,99.90
2022-08-23T01:44:19.151Z,99.90
2022-08-23T01:46:49.232Z,99.90
2022-08-23T01:49:28.107Z,99.90
2022-08-23T01:52:05.131Z,99.90
2022-08-23T01:54:35.747Z,99.90
2022-08-23T01:57:07.657Z,99.90
2022-08-23T01:59:46.060Z,99.90
2022-08-23T02:02:27.076Z,99.90
2022-08-23T02:04:56.170Z,99.90
2022-08-23T02:07:28.451Z,99.90
2022-08-23T02:09:58.449Z,99.90
2022-08-23T02:12:28.591Z,99.90
2022-08-23T02:14:56.807Z,99.90
2022-08-23T02:17:33.748Z,99.90
2022-08-23T02:20:02.285Z,99.90
2022-08-23T02:22:30.348Z,99.90
2022-08-23T02:25:12.003Z,99.90
2022-08-23T02:27:44.176Z,99.90
2022-08-23T02:30:15.391Z,99.90
2022-08-23T02:33:06.593Z,99.90
2022-08-23T02:35:38.832Z,99.90
2022-08-23T02:38:08.899Z,99.90
2022-08-23T02:41:00.767Z,99.90
2022-08-23T02:43:37.292Z,99.90
2022-08-23T02:46:08.690Z,99.90
2022-08-23T02:48:39.176Z,99.90
2022-08-23T02:51:09.672Z,99.90
2022-08-23T02:53:39.061Z,99.90
2022-08-23T02:56:27.565Z,99.90
2022-08-23T02:58:57.797Z,99.90
2022-08-23T03:01:36.953Z,99.90
2022-08-23T03:04:13.300Z,99.90
2022-08-23T03:07:00.134Z,99.90
2022-08-23T03:09:31.422Z,99.90
2022-08-23T03:12:24.730Z,99.90
2022-08-23T03:15:07.022Z,99.90
2022-08-23T03:17:36.228Z,99.90
2022-08-23T03:20:06.624Z,99.90
2022-08-23T03:22:35.974Z,99.90
2022-08-23T03:25:04.309Z,99.90
2022-08-23T03:27:35.819Z,99.90
2022-08-23T03:30:19.116Z,99.90
2022-08-23T03:32:49.076Z,99.90
2022-08-23T03:35:17.873Z,99.90
2022-08-23T03:37:46.325Z,99.90
2022-08-23T03:40:26.480Z,99.90
2022-08-23T03:42:57.058Z,99.90
2022-08-23T03:45:25.240Z,99.90
2022-08-23T03:47:53.445Z,99.90
2022-08-23T03:50:32.259Z,99.90
2022-08-23T03:53:01.431Z,99.90
2022-08-23T03:55:42.363Z,99.90
2022-08-23T03:58:29.830Z,99.90
2022-08-23T04:01:30.650Z,99.90
2022-08-23T04:04:00.807Z,99.90
2022-08-23T04:06:58.991Z,99.90
2022-08-23T04:09:45.396Z,99.90
2022-08-23T04:12:17.534Z,99.90
2022-08-23T04:14:48.577Z,99.90
2022-08-23T04:17:21.057Z,99.90
2022-08-23T04:19:58.571Z,99.90
2022-08-23T04:22:33.655Z,99.90
2022-08-23T04:25:03.112Z,99.90
2022-08-23T04:27:38.343Z,99.90
2022-08-23T04:30:12.325Z,99.90
2022-08-23T04:32:42.145Z,99.90
2022-08-23T04:35:11.996Z,99.90
2022-08-23T04:37:58.455Z,99.90
2022-08-23T04:40:55.634Z,99.90
2022-08-23T04:43:29.753Z,99.90
2022-08-23T04:46:05.722Z,99.90
2022-08-23T04:48:35.618Z,99.90
2022-08-23T04:51:04.008Z,99.90
2022-08-23T04:53:41.493Z,99.90
2022-08-23T04:56:13.751Z,99.90
2022-08-23T04:58:48.267Z,99.90
2022-08-23T05:01:25.629Z,99.90
2022-08-23T05:03:57.242Z,99.90
2022-08-23T05:06:28.790Z,99.90
2022-08-23T05:09:05.708Z,99.90
2022-08-23T05:11:33.732Z,99.90
2022-08-23T05:14:03.756Z,99.90
2022-08-23T05:16:35.455Z,99.90
2022-08-23T05:19:03.974Z,99.90
2022-08-23T05:21:32.169Z,99.90
2022-08-23T05:24:02.112Z,99.90
2022-08-23T05:26:32.112Z,99.90
2022-08-23T05:29:01.210Z,99.90
2022-08-23T05:31:30.533Z,99.90
2022-08-23T05:33:59.964Z,99.90
2022-08-23T05:36:28.066Z,99.90
2022-08-23T05:39:09.396Z,99.90
2022-08-23T05:41:43.165Z,99.90
2022-08-23T05:44:12.386Z,99.90
2022-08-23T05:46:43.487Z,99.90
2022-08-23T05:49:13.159Z,99.90
2022-08-23T05:51:51.554Z,99.90
2022-08-23T05:54:20.357Z,99.90
2022-08-23T05:56:49.579Z,99.90
2022-08-23T05:59:20.309Z,99.90
2022-08-23T06:01:50.229Z,99.90
2022-08-23T06:04:23.854Z,99.90
2022-08-23T06:06:52.174Z,99.90
2022-08-23T06:09:22.446Z,99.90
2022-08-23T06:11:51.475Z,99.90
2022-08-23T06:14:19.793Z,99.90
2022-08-23T06:16:54.923Z,99.90
2022-08-23T06:19:32.304Z,99.90
2022-08-23T06:22:00.422Z,99.90
2022-08-23T06:24:30.563Z,99.90
2022-08-23T06:26:58.778Z,99.90
2022-08-23T06:29:27.864Z,99.90
2022-08-23T06:31:58.116Z,99.90
2022-08-23T06:34:33.713Z,99.90
2022-08-23T06:37:07.777Z,99.90
2022-08-23T06:39:38.663Z,99.90
2022-08-23T06:42:36.399Z,99.90
2022-08-23T06:45:02.072Z,99.90
2022-08-23T06:47:31.781Z,99.90
2022-08-23T06:50:00.208Z,99.90
2022-08-23T06:52:38.161Z,99.90
2022-08-23T06:55:14.352Z,99.90
2022-08-23T06:57:43.704Z,99.90
2022-08-23T07:00:22.489Z,99.90
2022-08-23T07:02:55.131Z,99.90
2022-08-23T07:05:25.480Z,99.90
2022-08-23T07:07:57.169Z,99.90
2022-08-23T07:10:25.361Z,99.90
2022-08-23T07:12:55.631Z,99.90
2022-08-23T07:15:25.117Z,99.90
2022-08-23T07:18:05.450Z,99.90
2022-08-23T07:20:35.568Z,99.90
2022-08-23T07:23:06.288Z,99.90
2022-08-23T07:25:43.832Z,99.90
2022-08-23T07:28:13.987Z,99.90
2022-08-23T07:30:51.186Z,99.90
2022-08-23T07:33:26.102Z,99.90
2022-08-23T07:35:54.602Z,99.90
2022-08-23T07:38:30.910Z,99.90
2022-08-23T07:40:59.084Z,99.90
2022-08-23T07:43:28.327Z,99.90
2022-08-23T07:46:04.300Z,99.90
2022-08-23T07:48:54.977Z,99.90
2022-08-23T07:51:23.532Z,99.90
2022-08-23T07:54:11.060Z,99.90
2022-08-23T07:56:45.879Z,99.90
2022-08-23T07:59:15.180Z,99.90
2022-08-23T08:01:57.480Z,99.90
2022-08-23T08:04:26.818Z,99.90
2022-08-23T08:07:27.656Z,99.90
2022-08-23T08:10:02.573Z,99.90
2022-08-23T08:12:38.054Z,99.90
2022-08-23T08:15:09.449Z,99.90
2022-08-23T08:17:48.644Z,99.90
2022-08-23T08:20:16.920Z,99.90
2022-08-23T08:22:49.958Z,99.90
2022-08-23T08:25:48.673Z,99.90
2022-08-23T08:28:30.096Z,99.90
2022-08-23T08:31:00.637Z,99.90
2022-08-23T08:33:31.471Z,99.90
2022-08-23T08:36:03.874Z,99.90
2022-08-23T08:38:48.063Z,99.90
2022-08-23T08:41:51.186Z,99.80
2022-08-23T08:44:53.535Z,99.90
2022-08-23T08:47:28.851Z,99.90
2022-08-23T08:50:03.623Z,99.90
2022-08-23T08:52:52.529Z,99.90
2022-08-23T08:55:25.163Z,99.90
2022-08-23T08:58:07.879Z,99.80
2022-08-23T09:00:40.032Z,99.90
2022-08-23T09:03:15.354Z,99.90
2022-08-23T09:05:53.685Z,99.90
2022-08-23T09:08:37.440Z,99.90
2022-08-23T09:11:12.263Z,99.90
2022-08-23T09:14:16.654Z,99.60
2022-08-23T09:17:18.618Z,99.00
2022-08-23T09:19:52.585Z,99.90
2022-08-23T09:22:31.518Z,99.50
2022-08-23T09:25:10.404Z,99.90
2022-08-23T09:27:41.409Z,98.40
2022-08-23T09:30:20.706Z,98.50
2022-08-23T09:32:52.256Z,96.80
2022-08-23T09:35:29.449Z,97.50
2022-08-23T09:38:02.790Z,98.20
2022-08-23T09:40:35.316Z,97.60
2022-08-23T09:43:14.593Z,96.90
2022-08-23T09:46:02.309Z,95.60
2022-08-23T09:48:40.046Z,93.60
2022-08-23T09:51:23.613Z,93.80
2022-08-23T09:54:08.551Z,94.20
2022-08-23T09:56:41.714Z,92.70
2022-08-23T09:59:36.204Z,91.40
2022-08-23T10:02:30.549Z,91.30
2022-08-23T10:05:03.077Z,91.20
2022-08-23T10:07:46.530Z,91.20
2022-08-23T10:10:25.910Z,91.50
2022-08-23T10:12:57.620Z,90.70
2022-08-23T10:15:36.873Z,91.30
2022-08-23T10:18:25.508Z,91.30
2022-08-23T10:21:08.956Z,90.50
2022-08-23T10:23:49.841Z,89.60
2022-08-23T10:26:28.827Z,90.10
2022-08-23T10:29:27.555Z,91.30
2022-08-23T10:32:05.141Z,91.30
2022-08-23T10:34:48.407Z,90.90
2022-08-23T10:37:35.909Z,90.90
2022-08-23T10:40:11.911Z,90.20
2022-08-23T10:42:47.719Z,87.50
2022-08-23T10:45:22.623Z,89.50
2022-08-23T10:48:04.035Z,87.50
2022-08-23T10:50:45.263Z,83.50
2022-08-23T10:53:28.076Z,86.60
2022-08-23T10:56:04.931Z,83.00
2022-08-23T10:58:42.340Z,85.70
2022-08-23T11:01:15.945Z,84.30
2022-08-23T11:03:48.003Z,81.30
2022-08-23T11:06:46.713Z,84.20
2022-08-23T11:09:46.849Z,84.40
2022-08-23T11:12:50.541Z,80.50
2022-08-23T11:15:30.082Z,81.80
2022-08-23T11:18:02.090Z,81.80
2022-08-23T11:21:05.765Z,79.00
2022-08-23T11:23:48.251Z,79.40
2022-08-23T11:27:06.321Z,76.80
2022-08-23T11:29:38.432Z,77.00
2022-08-23T11:32:38.996Z,75.70
2022-08-23T11:35:35.318Z,74.20
2022-08-23T11:38:05.547Z,75.20
2022-08-23T11:41:00.259Z,71.20
2022-08-23T11:43:37.700Z,75.20
2022-08-23T11:46:24.087Z,71.30
2022-08-23T11:48:59.803Z,72.20
2022-08-23T11:51:34.659Z,73.40
2022-08-23T11:54:37.047Z,69.70
2022-08-23T11:57:21.026Z,72.30
2022-08-23T12:00:27.786Z,73.40
2022-08-23T12:03:03.299Z,72.80
2022-08-23T12:06:00.974Z,72.80
2022-08-23T12:08:47.487Z,70.50
2022-08-23T12:11:17.208Z,69.80
2022-08-23T12:13:55.207Z,70.90
2022-08-23T12:16:49.737Z,72.40
2022-08-23T12:19:31.447Z,67.90
2022-08-23T12:22:06.693Z,70.00
2022-08-23T12:24:42.714Z,66.20
2022-08-23T12:27:22.406Z,70.00
2022-08-23T12:30:00.338Z,69.40
2022-08-23T12:32:36.782Z,72.10
2022-08-23T12:35:33.056Z,73.60
2022-08-23T12:38:09.384Z,76.60
2022-08-23T12:40:42.624Z,80.20
2022-08-23T12:43:22.768Z,79.00
2022-08-23T12:45:57.363Z,83.80
2022-08-23T12:48:27.771Z,85.00
2022-08-23T12:50:58.852Z,81.90
2022-08-23T12:53:29.660Z,79.50
2022-08-23T12:56:02.654Z,77.10
2022-08-23T12:58:33.869Z,70.00
2022-08-23T13:01:07.549Z,70.00
2022-08-23T13:03:39.691Z,71.50
2022-08-23T13:06:10.688Z,70.50
2022-08-23T13:08:42.774Z,70.10
2022-08-23T13:11:12.689Z,66.50
2022-08-23T13:13:44.033Z,66.10
2022-08-23T13:16:30.524Z,66.60
2022-08-23T13:19:17.495Z,66.90
2022-08-23T13:21:46.037Z,64.40
2022-08-23T13:24:38.298Z,63.80
2022-08-23T13:27:16.850Z,60.90
2022-08-23T13:29:56.359Z,59.60
2022-08-23T13:32:38.425Z,61.80
2022-08-23T13:35:29.010Z,60.10
2022-08-23T13:38:00.421Z,62.50
2022-08-23T13:40:33.295Z,59.30
2022-08-23T13:43:05.148Z,57.90
2022-08-23T13:45:50.170Z,58.50
2022-08-23T13:48:23.227Z,58.10
2022-08-23T13:50:51.690Z,57.50
2022-08-23T13:53:20.279Z,59.30
2022-08-23T13:55:53.049Z,61.60
2022-08-23T13:58:28.822Z,63.00
2022-08-23T14:00:58.818Z,62.40
2022-08-23T14:03:32.141Z,60.70
2022-08-23T14:06:00.137Z,65.60
2022-08-23T14:08:28.100Z,65.50
2022-08-23T14:10:56.209Z,62.80
2022-08-23T14:13:27.890Z,67.70
2022-08-23T14:15:58.817Z,68.80
2022-08-23T14:21:35.501Z,68.00
2022-08-23T14:24:03.964Z,68.60
2022-08-23T14:26:32.059Z,71.80
2022-08-23T14:29:00.037Z,73.20
2022-08-23T14:31:28.052Z,75.70
2022-08-23T14:34:01.768Z,72.00
2022-08-23T14:36:31.466Z,74.50
2022-08-23T14:38:59.655Z,72.20
2022-08-23T14:41:29.841Z,68.10
2022-08-23T14:43:57.936Z,66.20
2022-08-23T14:46:26.102Z,67.80
2022-08-23T14:48:54.172Z,69.20
2022-08-23T14:51:27.907Z,70.20
2022-08-23T14:53:56.854Z,71.30
2022-08-23T14:56:24.821Z,72.30
2022-08-23T14:58:54.446Z,72.00
2022-08-23T15:01:23.611Z,71.10
2022-08-23T15:03:51.938Z,72.40
2022-08-23T15:06:21.800Z,75.30
2022-08-23T15:08:51.277Z,74.70
2022-08-23T15:14:07.413Z,76.50
2022-08-23T15:16:36.477Z,77.20
2022-08-23T15:19:05.494Z,78.60
2022-08-23T15:21:34.705Z,82.60
2022-08-23T15:24:04.505Z,85.90
2022-08-23T15:26:33.046Z,84.90
2022-08-23T15:29:01.847Z,85.80
2022-08-23T15:31:30.592Z,85.30
2022-08-23T15:33:59.493Z,84.50
2022-08-23T15:36:27.968Z,85.60
2022-08-23T15:38:55.927Z,86.90
2022-08-23T15:41:25.336Z,87.60
2022-08-23T15:43:53.452Z,88.80
2022-08-23T15:46:24.709Z,90.60
2022-08-23T15:48:56.937Z,90.70
2022-08-23T15:51:25.508Z,90.30
2022-08-23T15:53:53.557Z,91.20
2022-08-23T15:56:25.719Z,90.30
2022-08-23T15:59:04.546Z,90.20
2022-08-23T16:01:33.858Z,90.70
2022-08-23T16:04:02.401Z,91.30
2022-08-23T16:06:34.386Z,90.30
2022-08-23T16:09:06.337Z,90.20
2022-08-23T16:11:34.353Z,90.20
2022-08-23T16:14:03.918Z,90.70
2022-08-23T16:16:37.511Z,91.00
2022-08-23T16:19:06.023Z,91.60
2022-08-23T16:21:34.295Z,92.00
2022-08-23T16:24:02.781Z,92.70
2022-08-23T16:26:35.063Z,93.20
2022-08-23T16:29:08.598Z,93.90
2022-08-23T16:31:39.762Z,93.50
2022-08-23T16:34:12.570Z,93.10
2022-08-23T16:36:43.634Z,93.70
2022-08-23T16:39:12.670Z,94.60
2022-08-23T16:41:40.625Z,94.90
2022-08-23T16:44:10.091Z,94.50
2022-08-23T16:46:41.184Z,95.00
2022-08-23T16:49:09.512Z,95.60
2022-08-23T16:51:37.907Z,95.00
2022-08-23T16:54:07.298Z,94.90
2022-08-23T16:56:36.922Z,95.00
2022-08-23T16:59:06.530Z,95.90
2022-08-23T17:01:47.175Z,96.10
2022-08-23T17:04:15.368Z,96.00
2022-08-23T17:06:43.884Z,95.60
2022-08-23T17:09:12.108Z,96.10
2022-08-23T17:11:41.641Z,96.40
2022-08-23T17:14:09.831Z,96.90
2022-08-23T17:16:37.978Z,97.30
2022-08-23T17:19:07.328Z,97.40
2022-08-23T17:21:37.748Z,96.50
2022-08-23T17:24:06.506Z,96.20
2022-08-23T17:26:34.469Z,96.30
2022-08-23T17:29:04.587Z,96.20
2022-08-23T17:31:32.781Z,97.10
2022-08-23T17:34:03.775Z,97.10
2022-08-23T17:36:37.657Z,97.60
2022-08-23T17:39:09.788Z,98.10
2022-08-23T17:41:40.971Z,98.20
2022-08-23T17:44:11.383Z,98.50
2022-08-23T17:46:44.090Z,98.50
2022-08-23T17:49:12.726Z,99.30
2022-08-23T17:51:42.806Z,99.90
2022-08-23T17:54:12.884Z,99.90
2022-08-23T17:56:50.351Z,99.90
2022-08-23T17:59:18.861Z,99.90
2022-08-23T18:01:46.809Z,99.90
2022-08-23T18:04:15.103Z,99.90
2022-08-23T18:06:44.994Z,99.90
2022-08-23T18:09:13.271Z,99.90
2022-08-23T18:11:41.954Z,99.90
2022-08-23T18:14:10.330Z,99.90
2022-08-23T18:16:38.594Z,99.90
2022-08-23T18:19:09.423Z,99.90
2022-08-23T18:21:41.601Z,99.90
2022-08-23T18:24:11.376Z,99.90
2022-08-23T18:27:09.348Z,99.90
2022-08-23T18:29:39.013Z,99.90
2022-08-23T18:32:08.172Z,99.90
2022-08-23T18:34:39.478Z,99.90
2022-08-23T18:37:08.415Z,99.90
2022-08-23T18:39:37.849Z,99.90
2022-08-23T18:42:09.131Z,99.90
2022-08-23T18:44:37.052Z,99.90
2022-08-23T18:47:05.710Z,99.90
2022-08-23T18:49:35.363Z,99.90
2022-08-23T18:52:04.040Z,99.90
2022-08-23T18:54:34.104Z,99.90
2022-08-23T18:57:04.581Z,99.90
2022-08-23T18:59:33.706Z,99.90
2022-08-23T19:02:02.765Z,99.90
2022-08-23T19:04:34.076Z,99.90
2022-08-23T19:07:02.113Z,99.90
2022-08-23T19:09:31.226Z,99.90
2022-08-23T19:12:10.096Z,99.90
2022-08-23T19:14:48.862Z,99.90
2022-08-23T19:17:55.607Z,99.90
2022-08-23T19:20:34.620Z,99.90
2022-08-23T19:23:07.103Z,99.90
2022-08-23T19:25:38.718Z,99.90
2022-08-23T19:28:09.045Z,99.90
2022-08-23T19:30:44.818Z,99.90
2022-08-23T19:33:17.832Z,99.90
2022-08-23T19:36:45.708Z,99.90
2022-08-23T19:39:16.976Z,99.90
2022-08-23T19:41:46.954Z,99.90
2022-08-23T19:44:17.784Z,99.90
2022-08-23T19:46:48.355Z,99.90
2022-08-23T19:49:16.929Z,99.90
2022-08-23T19:51:53.722Z,99.90
2022-08-23T19:54:21.927Z,99.90
2022-08-23T19:56:51.694Z,99.90
2022-08-23T19:59:24.461Z,99.90
2022-08-23T20:01:53.740Z,99.90
2022-08-23T20:04:22.989Z,99.90
2022-08-23T20:06:51.536Z,99.90
2022-08-23T20:09:21.015Z,99.90
2022-08-23T20:11:49.374Z,99.90
2022-08-23T20:14:17.401Z,99.90
2022-08-23T20:16:47.078Z,99.90
2022-08-23T20:19:15.365Z,99.90
2022-08-23T20:21:43.851Z,99.90
2022-08-23T20:24:13.586Z,99.90
2022-08-23T20:26:44.071Z,99.90
2022-08-23T20:29:16.862Z,99.90
2022-08-23T20:31:50.815Z,99.90
2022-08-23T20:34:19.084Z,99.90
2022-08-23T20:36:47.814Z,99.90
2022-08-23T20:39:19.204Z,99.90
2022-08-23T20:41:50.952Z,99.90
2022-08-23T20:44:20.584Z,99.90
2022-08-23T20:46:53.965Z,99.90
2022-08-23T20:49:23.382Z,99.90
2022-08-23T20:51:51.947Z,99.90
2022-08-23T20:54:20.153Z,99.90
2022-08-23T20:56:51.488Z,99.90
2022-08-23T20:59:20.707Z,99.90
2022-08-23T21:01:50.829Z,99.90
2022-08-23T21:04:19.624Z,99.90
2022-08-23T21:06:53.607Z,99.90
2022-08-23T21:09:24.695Z,99.90
2022-08-23T21:11:58.364Z,99.90
2022-08-23T21:14:26.388Z,99.90
2022-08-23T21:16:56.523Z,99.90
2022-08-23T21:19:24.544Z,99.90
2022-08-23T21:21:52.494Z,99.90
2022-08-23T21:24:20.454Z,99.90
2022-08-23T21:26:48.732Z,99.90
2022-08-23T21:29:16.733Z,99.90
2022-08-23T21:31:44.776Z,99.90
2022-08-23T21:34:17.654Z,99.90
2022-08-23T21:36:45.748Z,99.90
2022-08-23T21:39:13.767Z,99.90
2022-08-23T21:41:44.443Z,99.90
2022-08-23T21:44:17.337Z,99.90
2022-08-23T21:46:46.202Z,99.90
2022-08-23T21:49:14.572Z,99.90
2022-08-23T21:51:45.780Z,99.90
2022-08-23T21:54:14.773Z,99.90
2022-08-23T21:56:43.380Z,99.90
2022-08-23T21:59:13.644Z,99.90
2022-08-23T22:01:42.767Z,99.90
2022-08-23T22:04:13.410Z,99.90
2022-08-23T22:06:43.663Z,99.90
2022-08-23T22:09:15.911Z,99.90
2022-08-23T22:11:45.397Z,99.90
2022-08-23T22:14:17.017Z,99.90
2022-08-23T22:16:45.042Z,99.90
2022-08-23T22:19:15.142Z,99.90
2022-08-23T22:21:45.111Z,99.90
2022-08-23T22:24:13.791Z,99.90
2022-08-23T22:26:43.589Z,99.90
2022-08-23T22:29:12.016Z,99.90
2022-08-23T22:31:41.143Z,99.90
2022-08-23T22:34:12.458Z,99.90
2022-08-23T22:36:40.627Z,99.90
2022-08-23T22:39:10.440Z,99.90
2022-08-23T22:41:39.889Z,99.90
2022-08-23T22:44:07.872Z,99.90
2022-08-23T22:46:36.966Z,99.90
2022-08-23T22:49:05.174Z,99.90
2022-08-23T22:51:36.612Z,99.90
2022-08-23T22:54:07.670Z,99.90
2022-08-23T22:56:41.693Z,99.90
2022-08-23T22:59:10.740Z,99.90
2022-08-23T23:01:42.161Z,99.90
2022-08-23T23:04:14.612Z,99.90
2022-08-23T23:06:42.785Z,99.90
2022-08-23T23:09:12.383Z,99.90
2022-08-23T23:11:43.186Z,99.90
2022-08-23T23:14:15.597Z,99.90
2022-08-23T23:16:45.173Z,99.90
2022-08-23T23:19:31.788Z,99.90
2022-08-23T23:21:59.894Z,99.90
2022-08-23T23:24:30.595Z,99.90
2022-08-23T23:27:01.003Z,99.90
2022-08-23T23:29:29.897Z,99.90
2022-08-23T23:31:58.808Z,99.90
2022-08-23T23:34:27.956Z,99.90
2022-08-23T23:36:57.007Z,99.90
2022-08-23T23:39:26.205Z,99.90
2022-08-23T23:41:54.645Z,99.90
2022-08-23T23:44:31.704Z,99.90
2022-08-23T23:47:01.026Z,99.90
2022-08-23T23:49:32.463Z,99.90
2022-08-23T23:52:02.028Z,99.90
2022-08-23T23:54:30.210Z,99.90
2022-08-23T23:56:58.241Z,99.90
2022-08-23T23:59:28.199Z,99.90
